Lake Bridgeport, Texas
Current Conditions -  °F | °C
As of 10:15 AM on Wednesday 22 Oct 2014 (Local Time) from KXBP Reporting Station
Clear Clear  
Wind Chill: 70°   Ceiling: Unl
Heat Index: 70°   Visibility: 10mi
Dew Point: 62°   Wind: 6mph
Humidity: 74%   Direction: 130°SE
Pressure: 30.18"   Gusts: NA
Location:  33.1691°N, 97.8246°W
Report Text: KXBP 221515Z AUTO 13005KT 10SM CLR 21/17 A3018 RMK AO2 T02120165
Loading
Personal Weather Stations






























Interactive Weather Map
Tropical Storm Tracking
New forecast layout! Learn more

10-Day Weather Forecast

Advertisements
Track Severe Weather on mobile